佐賀空港の過去48時間の天気

佐賀空港 (Saga)

現在時刻: 9/28 18:40 JST (9/28 09:40 UTC) 以下の時間は現地時間です。

過去48時間のMETAR気象情報
時間 風向 風速(m/s) 視程 気温(℃) 湿度(%) 気圧(hPa) 天気現象
28 18:00 北北東 6 10km以上 22 57 1010
28 17:00 北東 5 10km以上 24 50 1010
28 16:00 北北東 6 10km以上 25 44 1010
28 15:00 北北東 5 10km以上 26 45 1011
28 14:00 北北東 5 10km以上 26 42 1011
28 13:00 北北東 5 10km以上 25 50 1012
28 12:00 北北東 5 10km以上 25 50 1013
28 11:00 北北東 6 10km以上 24 54 1014
28 10:00 北北東 5 10km以上 23 57 1014
28 09:00 北東 6 10km以上 21 60 1015
28 08:00 北東 5 10km以上 19 73 1015
28 07:00 北北東 5 10km以上 18 73 1015
28 06:10 北東 5 10km以上 16 82 1014
27 23:00 北北東 3 10km以上 17 83 1015
27 22:00 北北東 2 10km以上 17 83 1015
27 21:00 北北東 3 10km以上 17 77 1015
27 20:00 3 10km以上 18 77 1015
27 19:00 4 10km以上 18 77 1014
27 18:00 4 10km以上 21 64 1013
27 17:00 5 10km以上 23 57 1013
27 16:00 北北東 6 10km以上 25 50 1012
27 15:00 北北東 6 10km以上 26 54 1012
27 14:00 北北東 6 10km以上 27 48 1012
27 13:00 北北東 5 10km以上 26 54 1013
27 12:00 北北東 7 10km以上 24 57 1013
27 11:00 北北東 5 10km以上 24 57 1014
27 10:00 北北東 7 10km以上 25 57 1014
27 09:00 北北東 6 10km以上 24 61 1014
27 08:00 北北東 4 10km以上 22 69 1014
27 07:00 北北東 3 10km以上 20 78 1013
27 06:10 北北東 4 10km以上 18 88 1013
RJFS 280900Z 03011KT 9999 FEW030 BKN/// 22/13 Q1010
RJFS 280800Z 04010KT 9999 FEW030 BKN/// 24/13 Q1010
RJFS 280700Z 03011KT 9999 FEW035 BKN/// 25/12 Q1010
RJFS 280600Z 02009KT 9999 FEW035 BKN/// 26/13 Q1011
RJFS 280500Z 03010KT 9999 FEW035 BKN/// 26/12 Q1011
RJFS 280400Z 02010KT 340V040 9999 FEW035 BKN/// 25/14 Q1012
RJFS 280300Z 03010KT 9999 FEW035 SCT/// 25/14 Q1013
RJFS 280200Z 03011KT 9999 FEW035 BKN/// 24/14 Q1014
RJFS 280100Z 03010KT 9999 FEW030 BKN/// 23/14 Q1014
RJFS 280000Z 04012KT 9999 FEW035 BKN/// 21/13 Q1015
RJFS 272300Z 05009KT 9999 FEW030 BKN/// 19/14 Q1015
RJFS 272200Z 03010KT 9999 FEW030 SCT/// 18/13 Q1015
RJFS 272110Z 04009KT 9999 FEW030 16/13 Q1014 RMK 1CU030 A2997
RJFS 271400Z 03006KT 9999 FEW035 17/14 Q1015
RJFS 271300Z 02004KT 9999 FEW035 17/14 Q1015
RJFS 271200Z 02005KT 9999 FEW035 17/13 Q1015
RJFS 271100Z 36006KT 9999 FEW035 18/14 Q1015
RJFS 271000Z 01007KT 9999 FEW035 18/14 Q1014
RJFS 270900Z 01008KT 9999 FEW035 21/14 Q1013
RJFS 270800Z 01009KT 340V040 9999 FEW035 23/14 Q1013
RJFS 270700Z 02012KT 9999 FEW040 25/14 Q1012
RJFS 270600Z 02011KT 350V050 9999 FEW035 SCT045 26/16 Q1012
RJFS 270500Z 03011KT 350V060 9999 FEW035 SCT045 27/15 Q1012
RJFS 270400Z 03010KT 350V060 9999 FEW030 SCT040 26/16 Q1013
RJFS 270300Z 03013KT 9999 FEW030 SCT040 24/15 Q1013
RJFS 270200Z 02010KT 360V060 9999 SCT035 24/15 Q1014
RJFS 270100Z 03013KT 9999 SCT035 25/16 Q1014
RJFS 270000Z 03011KT 9999 FEW030 SCT040 24/16 Q1014
RJFS 262300Z 03008KT 9999 FEW025 22/16 Q1014
RJFS 262200Z 02006KT 9999 FEW025 20/16 Q1013
RJFS 262110Z 03007KT 9999 FEW025 18/16 Q1013 RMK 1CU025 A2992